Time;durP1;ratioP1;P1;durP2;ratioP2;P2;SDS_P1;SDS_P2;PMS_P1;PMS_P2;Temp;Humidity;BMP_temperature;BMP_pressure;BME280_temperature;BME280_humidity;BME280_pressure;Samples;Min_cycle;Max_cycle;Signal;HPM_P1;HPM_P2
2022/06/28 00:00:45;;;;;;;13.60;12.20;;;;;;;22.15;76.29;98901.20;105298;1271;74414;-77
2022/06/28 00:03:12;;;;;;;12.80;11.60;;;;;;;22.11;76.64;98898.38;105234;1271;62212;-77
2022/06/28 00:05:40;;;;;;;12.40;11.20;;;;;;;22.10;76.99;98900.55;105282;1270;62159;-77
2022/06/28 00:08:07;;;;;;;12.90;11.70;;;;;;;22.05;77.51;98908.29;105081;1269;76234;-77
2022/06/28 00:10:42;;;;;;;12.60;11.50;;;;;;;22.00;77.69;98911.61;105281;1271;70100;-77
2022/06/28 00:13:16;;;;;;;12.80;11.60;;;;;;;21.99;78.36;98907.95;105370;1271;73473;-78
2022/06/28 00:18:28;;;;;;;13.20;12.00;;;;;;;21.95;78.66;98908.66;105210;1271;62075;-78
2022/06/28 00:20:55;;;;;;;13.40;12.00;;;;;;;21.89;78.92;98912.86;105270;1271;62071;-78
2022/06/28 00:23:21;;;;;;;13.50;12.30;;;;;;;21.83;79.11;98916.60;105003;1271;62058;-78
2022/06/28 00:25:48;;;;;;;15.00;13.50;;;;;;;21.77;79.50;98922.60;105100;1271;73334;-75
2022/06/28 00:28:14;;;;;;;14.20;12.90;;;;;;;21.73;79.83;98924.57;105265;1271;62169;-77
2022/06/28 00:30:41;;;;;;;15.40;13.30;;;;;;;21.73;80.08;98922.73;105243;1271;62081;-77
2022/06/28 00:33:08;;;;;;;15.60;13.70;;;;;;;21.73;80.27;98922.59;105228;1271;76148;-77
2022/06/28 00:35:34;;;;;;;15.40;13.50;;;;;;;21.71;80.46;98923.27;105268;1271;62059;-77
2022/06/28 00:38:01;;;;;;;16.40;13.90;;;;;;;21.68;80.57;98920.38;105290;1271;74431;-77
2022/06/28 00:40:27;;;;;;;14.40;13.10;;;;;;;21.64;80.85;98919.58;105239;1271;62229;-76
2022/06/28 00:42:54;;;;;;;16.10;14.60;;;;;;;21.59;80.94;98915.59;105268;1270;62196;-78
2022/06/28 00:45:21;;;;;;;15.50;13.70;;;;;;;21.58;81.05;98915.18;105271;1271;76848;-77
2022/06/28 00:47:49;;;;;;;14.50;13.00;;;;;;;21.58;81.42;98909.96;105230;1271;70355;-77
2022/06/28 00:50:17;;;;;;;16.60;14.90;;;;;;;21.55;81.47;98910.45;105251;1271;74094;-77
2022/06/28 00:53:23;;;;;;;14.30;13.10;;;;;;;21.51;81.55;98913.09;105294;1271;62088;-77
2022/06/28 00:55:49;;;;;;;14.70;13.40;;;;;;;21.49;81.88;98906.67;104594;1280;62589;-78
2022/06/28 00:58:16;;;;;;;14.60;13.10;;;;;;;21.46;81.99;98908.19;104561;1279;75663;-77
2022/06/28 01:00:47;;;;;;;13.80;12.40;;;;;;;21.44;82.08;98912.40;104191;1280;67378;-77
2022/06/28 01:03:22;;;;;;;14.20;12.90;;;;;;;21.36;82.20;98920.40;104547;1279;74301;-76
2022/06/28 01:05:50;;;;;;;14.00;12.60;;;;;;;21.28;82.46;98924.34;104614;1280;62229;-77
2022/06/28 01:08:18;;;;;;;14.10;12.70;;;;;;;21.21;82.64;98926.93;104380;1280;62145;-78
2022/06/28 01:10:45;;;;;;;14.10;12.70;;;;;;;21.18;83.02;98929.05;104535;1280;75975;-77
2022/06/28 01:13:13;;;;;;;14.80;13.40;;;;;;;21.13;83.18;98933.07;104504;1280;70252;-77
2022/06/28 01:15:41;;;;;;;13.00;11.90;;;;;;;21.09;83.26;98939.48;104572;1280;74482;-78
2022/06/28 01:18:09;;;;;;;14.70;13.40;;;;;;;21.04;83.55;98940.90;104435;1280;62131;-78
2022/06/28 01:20:36;;;;;;;14.60;13.20;;;;;;;21.01;83.67;98939.28;104604;1280;62318;-77
2022/06/28 01:23:03;;;;;;;13.50;12.30;;;;;;;20.99;83.98;98938.39;104579;1279;76124;-78
2022/06/28 01:25:30;;;;;;;14.60;13.20;;;;;;;20.96;84.09;98937.90;104560;1280;69196;-78
2022/06/28 01:27:56;;;;;;;14.30;13.10;;;;;;;20.90;84.42;98941.97;105078;1271;73207;-78
2022/06/28 01:30:23;;;;;;;14.80;13.40;;;;;;;20.84;84.78;98945.31;105037;1271;62219;-78
2022/06/28 01:32:50;;;;;;;14.40;12.90;;;;;;;20.77;84.98;98947.15;105259;1271;62079;-78
2022/06/28 01:35:17;;;;;;;15.00;13.00;;;;;;;20.74;85.30;98951.11;105253;1271;76958;-76
2022/06/28 01:37:45;;;;;;;16.80;13.80;;;;;;;20.72;85.55;98956.80;105252;1271;70446;-78
2022/06/28 01:40:12;;;;;;;15.30;13.90;;;;;;;20.68;85.92;98958.69;105257;1271;73662;-77
2022/06/28 01:42:39;;;;;;;14.80;13.60;;;;;;;20.64;86.19;98968.73;104968;1271;62254;-77
2022/06/28 01:45:05;;;;;;;15.40;14.00;;;;;;;20.61;86.36;98971.67;105232;1271;62199;-78
2022/06/28 01:47:36;;;;;;;14.70;13.30;;;;;;;20.58;86.90;98972.73;105219;1271;75957;-78
2022/06/28 01:50:03;;;;;;;15.70;14.10;;;;;;;20.55;86.78;98972.21;105379;1271;70304;-77
2022/06/28 01:52:30;;;;;;;15.50;14.10;;;;;;;20.54;87.08;98969.34;105060;1271;73381;-77
2022/06/28 01:54:56;;;;;;;15.40;14.00;;;;;;;20.53;87.36;98968.60;105232;1271;62091;-77
2022/06/28 01:57:23;;;;;;;16.20;14.00;;;;;;;20.51;87.66;98970.27;105200;1271;62216;-77
2022/06/28 01:59:50;;;;;;;14.80;13.30;;;;;;;20.49;87.74;98967.98;105272;1271;76098;-77
2022/06/28 02:02:17;;;;;;;15.20;13.80;;;;;;;20.46;87.95;98964.65;105674;1271;68526;-77
2022/06/28 02:04:44;;;;;;;14.60;13.40;;;;;;;20.46;88.14;98961.39;105185;1271;74258;-77
2022/06/28 02:07:10;;;;;;;14.80;13.40;;;;;;;20.44;88.56;98968.64;105252;1271;62194;-77
2022/06/28 02:09:37;;;;;;;14.90;13.50;;;;;;;20.40;88.74;98974.70;105261;1271;61972;-77
2022/06/28 02:12:05;;;;;;;14.70;13.50;;;;;;;20.32;89.35;98974.95;105224;1271;75934;-78
2022/06/28 02:14:31;;;;;;;16.10;13.90;;;;;;;20.27;89.69;98979.64;105221;1271;69377;-78
2022/06/28 02:16:58;;;;;;;16.20;14.70;;;;;;;20.22;90.33;98982.16;105195;1271;62094;-78
2022/06/28 02:19:25;;;;;;;16.40;14.80;;;;;;;20.17;90.45;98979.89;105244;1271;62084;-78
2022/06/28 02:21:52;;;;;;;16.10;14.50;;;;;;;20.14;90.90;98975.85;105272;1271;62136;-78
2022/06/28 02:24:19;;;;;;;16.60;15.00;;;;;;;20.10;91.39;98978.22;105230;1271;75546;-77
2022/06/28 02:26:46;;;;;;;15.70;14.10;;;;;;;20.04;91.74;98976.71;105238;1271;69128;-78
2022/06/28 02:29:12;;;;;;;16.00;14.60;;;;;;;20.00;92.42;98977.31;105269;1271;73564;-77
2022/06/28 02:31:39;;;;;;;15.70;14.20;;;;;;;20.01;93.20;98979.82;105280;1271;62108;-78
2022/06/28 02:34:06;;;;;;;15.70;14.20;;;;;;;19.99;93.09;98975.48;105055;1271;62188;-77
2022/06/28 02:42:03;;;;;;;15.40;13.90;;;;;;;20.00;93.57;98980.27;105251;1271;74472;-77
2022/06/28 02:44:29;;;;;;;15.80;14.30;;;;;;;20.01;93.59;98981.04;104999;1272;62289;-77
2022/06/28 02:46:56;;;;;;;16.60;14.30;;;;;;;20.05;93.91;98986.02;105017;1274;62168;-78
2022/06/28 02:49:23;;;;;;;15.20;13.70;;;;;;;20.07;94.36;98984.48;105270;1271;62092;-77
2022/06/28 02:51:49;;;;;;;16.60;15.10;;;;;;;20.12;94.91;98978.77;105214;1271;70370;-78
2022/06/28 02:54:16;;;;;;;17.90;15.10;;;;;;;20.18;95.01;98977.38;105249;1271;74410;-77
2022/06/28 02:56:44;;;;;;;16.30;14.60;;;;;;;20.24;94.66;98973.23;105222;1271;62196;-77
2022/06/28 02:59:11;;;;;;;15.40;13.90;;;;;;;20.25;94.71;98975.94;105263;1271;62226;-79
2022/06/28 03:01:38;;;;;;;15.30;13.90;;;;;;;20.23;94.41;98970.02;105247;1271;75931;-77
2022/06/28 03:04:05;;;;;;;14.60;13.30;;;;;;;20.22;94.49;98973.88;105240;1271;69334;-79
2022/06/28 03:06:32;;;;;;;15.90;14.40;;;;;;;20.22;94.40;98972.14;104969;1271;422385;-78
2022/06/28 03:08:59;;;;;;;16.20;14.80;;;;;;;20.24;94.43;98971.84;105325;1271;62551;-78
2022/06/28 03:11:25;;;;;;;16.50;15.10;;;;;;;20.32;94.53;98972.77;105059;1271;62183;-77
2022/06/28 03:13:52;;;;;;;15.80;14.40;;;;;;;20.42;94.38;98975.88;105251;1271;62369;-77
2022/06/28 03:16:18;;;;;;;19.70;18.00;;;;;;;20.50;94.32;98975.02;105290;1271;62091;-78
2022/06/28 03:18:45;;;;;;;17.60;16.00;;;;;;;20.60;94.40;98976.18;105230;1271;62171;-78
2022/06/28 03:21:11;;;;;;;18.40;16.70;;;;;;;20.71;94.26;98977.98;104829;1274;62312;-78
2022/06/28 03:23:38;;;;;;;17.20;15.60;;;;;;;20.84;94.08;98976.57;105265;1271;62059;-78
2022/06/28 03:26:05;;;;;;;19.30;15.90;;;;;;;20.99;93.86;98980.88;105257;1271;76944;-78
2022/06/28 03:28:31;;;;;;;18.20;16.60;;;;;;;21.13;93.51;98979.55;105114;1271;70426;-79
2022/06/28 03:30:58;;;;;;;16.60;15.20;;;;;;;21.31;93.22;98981.86;105445;1271;74354;-78
2022/06/28 03:33:25;;;;;;;16.60;15.20;;;;;;;21.90;92.31;98981.95;105259;1271;62092;-79
2022/06/28 03:35:51;;;;;;;16.00;14.60;;;;;;;22.72;90.50;98977.14;105045;1271;62144;-79
2022/06/28 03:38:18;;;;;;;15.90;14.30;;;;;;;23.46;88.39;98976.64;105483;1271;61990;-78
2022/06/28 03:40:44;;;;;;;16.00;14.60;;;;;;;24.16;86.52;98974.12;105352;1271;70087;-78
2022/06/28 03:43:11;;;;;;;15.10;13.70;;;;;;;24.73;84.27;98973.91;105276;1271;71424;-77
2022/06/28 03:45:38;;;;;;;15.30;14.00;;;;;;;24.91;83.37;98978.27;105220;1271;62293;-76
2022/06/28 03:48:04;;;;;;;14.00;12.70;;;;;;;25.60;81.22;98974.33;105232;1271;62145;-78
2022/06/28 03:50:31;;;;;;;14.30;13.20;;;;;;;26.32;78.60;98969.41;105265;1271;74125;-78
2022/06/28 03:52:58;;;;;;;18.80;14.10;;;;;;;26.96;76.01;98973.67;105286;1271;70421;-78
2022/06/28 03:55:24;;;;;;;14.90;13.40;;;;;;;27.49;73.16;98968.21;104999;1271;73255;-79
2022/06/28 03:57:51;;;;;;;14.10;12.80;;;;;;;28.07;71.07;98970.20;105043;1271;62098;-79
2022/06/28 04:00:17;;;;;;;15.70;12.90;;;;;;;28.63;68.80;98969.44;105025;1271;61960;-77
2022/06/28 04:02:44;;;;;;;14.40;13.00;;;;;;;29.11;66.92;98968.09;105278;1271;77259;-77
2022/06/28 04:05:10;;;;;;;13.20;12.00;;;;;;;29.46;64.89;98966.32;105281;1271;69341;-78
2022/06/28 04:07:37;;;;;;;13.00;11.80;;;;;;;29.72;63.11;98970.71;105243;1271;62055;-78
2022/06/28 04:10:06;;;;;;;13.30;11.30;;;;;;;30.01;61.28;98972.81;105252;1271;62021;-78
2022/06/28 04:12:33;;;;;;;13.40;12.10;;;;;;;30.36;59.75;98973.34;105310;1271;62616;-78
2022/06/28 04:15:00;;;;;;;12.70;11.50;;;;;;;30.78;58.57;98965.95;105267;1271;76165;-76
2022/06/28 04:17:26;;;;;;;12.20;11.10;;;;;;;31.25;56.63;98964.84;105234;1271;70567;-77
2022/06/28 04:19:53;;;;;;;11.20;10.40;;;;;;;31.62;54.91;98967.90;105257;1271;62199;-77
2022/06/28 04:22:19;;;;;;;11.70;10.60;;;;;;;31.86;53.67;98973.17;105286;1271;62504;-77
2022/06/28 04:24:46;;;;;;;12.10;10.90;;;;;;;32.19;52.93;98977.34;105273;1271;61964;-77
2022/06/28 04:27:12;;;;;;;11.20;10.40;;;;;;;32.50;51.66;98977.53;105004;1272;75944;-77
2022/06/28 04:29:39;;;;;;;10.90;9.80;;;;;;;32.77;50.28;98975.85;105311;1271;69236;-77
2022/06/28 04:32:06;;;;;;;10.80;9.70;;;;;;;32.88;49.51;98977.04;105295;1270;74109;-77
2022/06/28 04:34:33;;;;;;;10.70;9.60;;;;;;;32.75;49.39;98975.98;105215;1271;62536;-78
2022/06/28 04:37:02;;;;;;;10.50;9.50;;;;;;;32.65;48.88;98972.92;105307;1271;62056;-77
2022/06/28 04:39:28;;;;;;;10.20;9.30;;;;;;;32.08;49.21;98977.03;104966;1271;77040;-78
2022/06/28 04:41:55;;;;;;;9.90;9.00;;;;;;;31.70;49.42;98974.70;105290;1271;69138;-78
2022/06/28 04:44:21;;;;;;;14.70;9.20;;;;;;;32.43;48.59;98975.29;105321;1271;72696;-72
2022/06/28 04:46:48;;;;;;;9.30;8.40;;;;;;;33.07;47.08;98970.80;104988;1271;62406;-71
2022/06/28 04:49:15;;;;;;;9.90;8.60;;;;;;;33.39;46.39;98963.73;105238;1271;62013;-71
2022/06/28 04:51:41;;;;;;;9.10;8.20;;;;;;;33.15;46.11;98965.00;104974;1274;76296;-71
2022/06/28 04:54:08;;;;;;;9.30;8.40;;;;;;;32.67;46.57;98967.83;105241;1271;69074;-71
2022/06/28 04:56:34;;;;;;;9.20;8.50;;;;;;;32.48;46.64;98963.81;105232;1271;73246;-71
2022/06/28 04:59:01;;;;;;;9.50;8.70;;;;;;;32.46;46.47;98962.16;105232;1271;62157;-71
2022/06/28 05:01:28;;;;;;;8.70;8.10;;;;;;;33.20;45.39;98956.17;105243;1271;62201;-72
2022/06/28 05:03:54;;;;;;;9.30;8.50;;;;;;;33.84;44.65;98950.77;105272;1271;62076;-72
2022/06/28 05:06:21;;;;;;;10.40;9.40;;;;;;;34.33;43.79;98944.94;105282;1271;62077;-71
2022/06/28 05:08:48;;;;;;;9.50;8.70;;;;;;;34.77;43.06;98936.34;105217;1271;62822;-73
2022/06/28 05:11:15;;;;;;;11.20;8.00;;;;;;;35.17;41.98;98936.60;105238;1270;62183;-72
2022/06/28 05:13:41;;;;;;;9.30;8.40;;;;;;;35.40;41.26;98936.30;105282;1271;62129;-71
2022/06/28 05:16:08;;;;;;;9.90;8.40;;;;;;;35.36;41.25;98935.98;105262;1271;68658;-72
2022/06/28 05:18:34;;;;;;;9.60;7.90;;;;;;;34.87;41.50;98934.34;105258;1271;62342;-72
2022/06/28 05:21:01;;;;;;;9.80;8.80;;;;;;;34.68;41.55;98934.50;105265;1271;73770;-72
2022/06/28 05:23:27;;;;;;;9.10;7.90;;;;;;;34.70;41.18;98933.41;105260;1271;62218;-72
2022/06/28 05:25:54;;;;;;;9.30;7.70;;;;;;;34.87;40.77;98930.31;105268;1271;62085;-71
2022/06/28 05:28:21;;;;;;;9.10;8.30;;;;;;;35.05;40.58;98930.96;105259;1271;68166;-72
2022/06/28 05:30:48;;;;;;;9.20;8.30;;;;;;;35.29;40.29;98935.13;105293;1271;62277;-72
2022/06/28 05:33:15;;;;;;;8.70;8.00;;;;;;;35.45;39.96;98933.49;105276;1271;64685;-72
2022/06/28 05:35:41;;;;;;;9.40;8.40;;;;;;;35.60;39.49;98929.73;105267;1271;62097;-72
2022/06/28 05:38:08;;;;;;;9.20;8.50;;;;;;;35.64;39.42;98928.38;105261;1271;62024;-72
2022/06/28 05:40:35;;;;;;;10.80;7.90;;;;;;;35.73;38.98;98925.77;105259;1270;68402;-72
2022/06/28 05:43:01;;;;;;;8.30;7.80;;;;;;;35.84;38.55;98922.94;105238;1271;62194;-72
2022/06/28 05:45:28;;;;;;;8.80;8.00;;;;;;;35.92;38.15;98920.21;105249;1271;64526;-71
2022/06/28 05:47:55;;;;;;;8.20;7.50;;;;;;;36.03;37.83;98916.61;105272;1271;62193;-71
2022/06/28 05:50:21;;;;;;;8.50;7.70;;;;;;;36.19;37.41;98918.19;105273;1271;62199;-71
2022/06/28 05:52:48;;;;;;;8.60;7.90;;;;;;;36.24;37.37;98918.26;105274;1271;67253;-71
2022/06/28 05:55:14;;;;;;;8.50;7.80;;;;;;;36.34;37.57;98917.84;105025;1274;62042;-71
2022/06/28 05:57:41;;;;;;;10.20;7.90;;;;;;;36.47;37.42;98920.25;105259;1271;64536;-71
2022/06/28 06:00:09;;;;;;;8.30;7.30;;;;;;;36.59;37.03;98918.53;105262;1271;62146;-71
2022/06/28 06:02:36;;;;;;;9.00;8.20;;;;;;;36.61;37.29;98917.26;104993;1274;62071;-71
2022/06/28 06:05:03;;;;;;;8.50;7.70;;;;;;;36.49;37.07;98918.84;104994;1274;68259;-71
2022/06/28 06:07:30;;;;;;;8.40;7.70;;;;;;;36.49;37.19;98917.32;104784;1275;62107;-71
2022/06/28 06:09:57;;;;;;;8.80;8.20;;;;;;;36.59;36.90;98919.75;105017;1274;65731;-70
2022/06/28 06:12:24;;;;;;;8.40;7.70;;;;;;;36.64;36.62;98920.98;104631;1274;62067;-70
2022/06/28 06:14:50;;;;;;;9.40;8.60;;;;;;;36.45;37.02;98925.65;104950;1274;62703;-71
2022/06/28 06:17:17;;;;;;;8.10;7.40;;;;;;;36.49;37.43;98923.32;104928;1274;68424;-70
2022/06/28 06:19:45;;;;;;;9.00;7.70;;;;;;;36.68;37.12;98918.05;104987;1274;62180;-70
2022/06/28 06:22:11;;;;;;;8.70;7.70;;;;;;;36.68;37.06;98918.00;104975;1274;64554;-70
2022/06/28 06:24:38;;;;;;;10.20;8.00;;;;;;;36.77;37.18;98917.16;104931;1274;62142;-72
2022/06/28 06:27:04;;;;;;;8.70;7.90;;;;;;;36.85;36.69;98917.67;104966;1274;62113;-72
2022/06/28 06:29:31;;;;;;;8.10;7.40;;;;;;;36.70;36.84;98917.55;104719;1275;66621;-71
2022/06/28 06:31:57;;;;;;;8.70;7.80;;;;;;;36.74;37.50;98923.55;104965;1274;62111;-71
2022/06/28 06:34:24;;;;;;;8.30;7.60;;;;;;;36.94;37.19;98929.55;105109;1271;64429;-71
2022/06/28 06:36:51;;;;;;;8.90;8.10;;;;;;;37.12;36.96;98935.55;105219;1271;62178;-71
2022/06/28 06:39:17;;;;;;;9.20;8.40;;;;;;;37.25;37.02;98933.19;104983;1271;62197;-72
2022/06/28 06:41:45;;;;;;;7.80;7.00;;;;;;;37.29;36.40;98940.98;105224;1271;67158;-72
2022/06/28 06:44:12;;;;;;;8.10;7.30;;;;;;;37.02;35.80;98944.42;105274;1271;62072;-71
2022/06/28 06:46:38;;;;;;;9.70;7.00;;;;;;;36.92;36.27;98951.52;105186;1271;65716;-71
2022/06/28 06:49:05;;;;;;;8.20;7.00;;;;;;;36.99;36.01;98948.52;105194;1271;62164;-71
2022/06/28 06:51:32;;;;;;;7.50;6.80;;;;;;;36.92;35.68;98954.80;105249;1271;62034;-72
2022/06/28 06:53:58;;;;;;;8.10;7.30;;;;;;;36.76;34.87;98955.16;105243;1271;67315;-72
2022/06/28 06:56:25;;;;;;;8.90;7.00;;;;;;;36.56;34.90;98959.71;105288;1271;62108;-71
2022/06/28 06:58:52;;;;;;;8.50;7.80;;;;;;;36.12;35.40;98964.41;105262;1271;73184;-71
2022/06/28 07:01:18;;;;;;;8.50;7.30;;;;;;;35.72;35.39;98972.95;105270;1271;62187;-71
2022/06/28 07:03:45;;;;;;;8.40;7.50;;;;;;;35.35;35.41;98962.87;105233;1271;62400;-71
2022/06/28 07:06:13;;;;;;;8.50;7.60;;;;;;;35.17;35.69;98961.00;105254;1271;76069;-71
2022/06/28 07:08:40;;;;;;;9.30;8.30;;;;;;;35.04;36.25;98963.74;105355;1271;68208;-71
2022/06/28 07:11:07;;;;;;;9.90;8.50;;;;;;;34.97;36.54;98960.80;105227;1271;74223;-71
2022/06/28 07:13:34;;;;;;;10.10;7.60;;;;;;;34.89;36.38;98964.55;105259;1271;62047;-71
2022/06/28 07:16:01;;;;;;;8.10;7.60;;;;;;;34.66;35.86;98965.13;105063;1271;62066;-71
2022/06/28 07:18:29;;;;;;;11.00;7.80;;;;;;;34.39;36.42;98969.19;105243;1270;77231;-71
2022/06/28 07:20:56;;;;;;;8.40;7.60;;;;;;;34.02;36.39;98968.39;105379;1271;68133;-71
2022/06/28 07:23:23;;;;;;;9.20;8.30;;;;;;;33.55;36.90;98970.73;105246;1271;73150;-70
2022/06/28 07:25:50;;;;;;;9.80;9.00;;;;;;;33.17;37.45;98964.25;105246;1271;62212;-70
2022/06/28 07:28:17;;;;;;;9.40;8.40;;;;;;;32.96;38.09;98967.41;105268;1271;62139;-71
2022/06/28 07:30:44;;;;;;;9.40;8.50;;;;;;;32.85;38.38;98965.29;105286;1271;75856;-71
2022/06/28 07:33:10;;;;;;;9.10;8.20;;;;;;;32.80;38.31;98961.83;105283;1271;69569;-72
2022/06/28 07:35:37;;;;;;;8.80;8.00;;;;;;;32.68;38.76;98953.33;105226;1271;73374;-71
2022/06/28 07:38:04;;;;;;;9.20;8.40;;;;;;;32.54;39.37;98951.52;105233;1271;62082;-70
2022/06/28 07:40:30;;;;;;;9.40;8.50;;;;;;;32.39;39.37;98952.42;105265;1271;62166;-71
2022/06/28 07:42:57;;;;;;;9.20;8.40;;;;;;;32.28;39.87;98948.62;105227;1271;62059;-71
2022/06/28 07:45:23;;;;;;;8.10;7.50;;;;;;;32.26;40.04;98943.73;105256;1271;69232;-71
2022/06/28 07:47:50;;;;;;;8.10;7.50;;;;;;;32.30;40.00;98944.19;105204;1271;74341;-70
2022/06/28 07:53:05;;;;;;;6.70;6.10;;;;;;;32.35;39.61;98956.96;105219;1271;61976;-70
2022/06/28 07:55:32;;;;;;;6.70;6.10;;;;;;;32.55;39.96;98964.73;105524;1271;75999;-70
2022/06/28 07:58:00;;;;;;;7.00;6.40;;;;;;;32.69;39.10;98972.23;105356;1271;70589;-71
2022/06/28 08:00:26;;;;;;;6.80;6.00;;;;;;;32.67;38.94;98976.65;105047;1272;73684;-72
2022/06/28 08:02:53;;;;;;;5.90;5.40;;;;;;;32.73;38.71;98980.25;105236;1271;62293;-69
2022/06/28 08:05:20;;;;;;;7.30;5.50;;;;;;;32.69;38.29;98993.98;105259;1271;62058;-70
2022/06/28 08:07:48;;;;;;;6.00;5.40;;;;;;;32.59;38.12;98993.95;105004;1271;77122;-70
2022/06/28 08:10:17;;;;;;;6.00;5.50;;;;;;;32.71;37.98;99000.90;105250;1270;68131;-70
2022/06/28 08:12:44;;;;;;;;;;;;;;;32.80;37.83;99005.16;104929;1274;73120;-71
2022/06/28 08:15:11;;;;;;;5.50;5.00;;;;;;;32.72;36.89;99008.00;105240;1271;62158;-70
2022/06/28 08:17:38;;;;;;;5.20;4.70;;;;;;;32.72;38.03;99007.94;105232;1271;62055;-71
2022/06/28 08:20:05;;;;;;;6.00;4.50;;;;;;;32.91;37.68;99007.84;105216;1271;76369;-71
2022/06/28 08:22:32;;;;;;;5.60;5.10;;;;;;;33.08;37.89;99009.58;105240;1271;70245;-71
2022/06/28 08:24:59;;;;;;;5.80;5.00;;;;;;;33.33;37.68;99005.86;105251;1271;74381;-72
2022/06/28 08:27:25;;;;;;;5.80;5.20;;;;;;;33.55;37.09;99000.31;105241;1271;62055;-70
2022/06/28 08:29:52;;;;;;;7.00;5.20;;;;;;;33.68;37.47;98997.27;105225;1271;62063;-71
2022/06/28 08:32:20;;;;;;;5.60;5.20;;;;;;;33.90;37.32;99000.79;105182;1271;76014;-70
2022/06/28 08:34:47;;;;;;;5.80;5.10;;;;;;;34.12;36.44;98995.96;105259;1271;68036;-70
2022/06/28 08:37:14;;;;;;;7.30;4.90;;;;;;;33.87;35.35;98995.42;105223;1271;74238;-71
2022/06/28 08:39:41;;;;;;;6.20;5.60;;;;;;;33.56;36.43;98997.02;105285;1271;62200;-71
2022/06/28 08:42:10;;;;;;;6.50;5.90;;;;;;;33.70;37.38;99000.27;105259;1271;62107;-71
2022/06/28 08:44:37;;;;;;;8.40;5.80;;;;;;;33.90;37.43;99007.86;105245;1271;75941;-70
2022/06/28 08:47:05;;;;;;;6.00;5.30;;;;;;;34.00;37.45;99013.25;105240;1271;69344;-70
2022/06/28 08:49:31;;;;;;;7.70;5.70;;;;;;;34.09;37.74;99017.28;105233;1271;74520;-69
2022/06/28 08:51:58;;;;;;;7.20;5.80;;;;;;;34.15;37.92;99017.75;105202;1271;62024;-70
2022/06/28 08:54:26;;;;;;;9.80;5.90;;;;;;;34.12;37.41;99022.67;105291;1271;62168;-70
2022/06/28 08:56:53;;;;;;;6.90;5.20;;;;;;;33.91;36.82;99025.39;105256;1271;77233;-71
2022/06/28 08:59:22;;;;;;;5.30;4.80;;;;;;;33.73;36.52;99033.61;105248;1271;70459;-70
2022/06/28 09:01:50;;;;;;;6.60;4.80;;;;;;;33.54;36.32;99036.31;105277;1271;73212;-72
2022/06/28 09:04:17;;;;;;;7.20;5.00;;;;;;;33.45;36.56;99044.34;105209;1271;62215;-70
2022/06/28 09:06:43;;;;;;;6.00;5.30;;;;;;;33.52;37.00;99045.63;105201;1271;62145;-71
2022/06/28 09:09:28;;;;;;;6.80;5.80;;;;;;;33.56;36.98;99042.23;105234;1271;77006;-71
2022/06/28 09:11:55;;;;;;;6.50;5.90;;;;;;;33.52;37.10;99043.08;105224;1271;69291;-71
2022/06/28 09:14:29;;;;;;;6.80;6.10;;;;;;;33.49;37.73;99045.39;105236;1271;73138;-71
2022/06/28 09:16:58;;;;;;;7.40;6.70;;;;;;;33.37;37.56;99053.45;105232;1271;62059;-71
2022/06/28 09:19:40;;;;;;;9.20;6.80;;;;;;;33.12;37.89;99054.54;105314;1271;62060;-71
2022/06/28 09:22:06;;;;;;;7.80;7.00;;;;;;;32.95;38.52;99055.36;105250;1271;76987;-72
2022/06/28 09:24:34;;;;;;;10.40;8.10;;;;;;;32.78;38.82;99058.95;105052;1271;67762;-70
2022/06/28 09:27:05;;;;;;;11.60;8.80;;;;;;;32.64;40.02;99062.33;105155;1271;73162;-71
2022/06/28 09:29:48;;;;;;;11.90;8.60;;;;;;;32.42;41.35;99074.86;105271;1271;62114;-71
2022/06/28 09:32:15;;;;;;;12.60;10.00;;;;;;;32.13;42.49;99080.63;105223;1271;61992;-70
2022/06/28 09:34:57;;;;;;;11.40;9.00;;;;;;;31.87;43.14;99085.10;105280;1271;77209;-71
2022/06/28 09:37:34;;;;;;;9.20;8.40;;;;;;;31.61;44.25;99096.31;105402;1271;68962;-71
2022/06/28 09:40:22;;;;;;;10.40;9.40;;;;;;;31.41;45.46;99104.41;105148;1271;73339;-71
2022/06/28 09:43:14;;;;;;;12.70;9.40;;;;;;;31.15;46.52;99118.72;105236;1271;62167;-71
2022/06/28 09:45:43;;;;;;;12.00;10.20;;;;;;;30.79;48.12;99132.02;105215;1271;62088;-71
2022/06/28 09:48:16;;;;;;;12.00;10.90;;;;;;;30.30;49.11;99141.23;105099;1272;76144;-70
2022/06/28 09:50:43;;;;;;;11.40;10.40;;;;;;;30.00;49.61;99144.48;105492;1271;70553;-70
2022/06/28 09:53:13;;;;;;;11.80;9.90;;;;;;;29.78;50.76;99145.64;105281;1270;74348;-70
2022/06/28 09:55:42;;;;;;;14.10;10.20;;;;;;;29.45;51.39;99152.45;105273;1271;62502;-70
2022/06/28 09:58:09;;;;;;;11.10;10.00;;;;;;;29.19;52.15;99158.01;105313;1271;62050;-70
2022/06/28 10:00:39;;;;;;;10.30;9.30;;;;;;;29.01;52.63;99175.30;105305;1270;77094;-70
2022/06/28 10:03:07;;;;;;;14.50;9.10;;;;;;;28.87;53.31;99187.41;105293;1271;69328;-70
2022/06/28 10:05:34;;;;;;;10.10;9.00;;;;;;;28.70;53.83;99186.30;105242;1271;74486;-70
2022/06/28 10:08:02;;;;;;;14.50;9.70;;;;;;;28.53;54.49;99191.82;104977;1271;62088;-70
2022/06/28 10:10:30;;;;;;;12.60;10.80;;;;;;;28.36;55.54;99201.27;105191;1271;62088;-71
2022/06/28 10:16:02;;;;;;;13.90;12.50;;;;;;;27.60;58.38;99232.56;105222;1271;69373;-70
2022/06/28 10:18:29;;;;;;;14.10;12.70;;;;;;;27.24;59.84;99238.16;105211;1271;74443;-71
2022/06/28 10:20:56;;;;;;;15.10;13.60;;;;;;;26.87;61.54;99240.48;105227;1270;62086;-71
2022/06/28 10:23:25;;;;;;;14.30;12.00;;;;;;;26.53;63.60;99245.95;105264;1271;62161;-76
2022/06/28 10:26:08;;;;;;;14.50;13.30;;;;;;;26.22;65.70;99246.99;105231;1271;77202;-77
2022/06/28 10:28:37;;;;;;;16.70;13.90;;;;;;;26.01;66.72;99249.04;105250;1271;70571;-77
2022/06/28 10:31:25;;;;;;;15.70;14.20;;;;;;;25.86;68.29;99248.71;105202;1271;73334;-77
2022/06/28 10:33:57;;;;;;;14.60;13.20;;;;;;;25.65;72.62;99239.34;105249;1271;62085;-75
2022/06/28 10:36:26;;;;;;;16.90;15.20;;;;;;;25.20;75.91;99233.90;105297;1271;62130;-76
2022/06/28 10:39:06;;;;;;;15.50;14.00;;;;;;;24.90;76.70;99224.53;105469;1271;75939;-77
2022/06/28 10:41:43;;;;;;;16.10;14.40;;;;;;;24.76;79.40;99219.92;105266;1271;69370;-76
2022/06/28 10:44:12;;;;;;;15.90;14.50;;;;;;;24.66;80.75;99207.05;105263;1271;73458;-75
2022/06/28 10:46:41;;;;;;;15.20;13.80;;;;;;;24.56;82.56;99196.47;105356;1271;62084;-75
2022/06/28 10:49:10;;;;;;;18.80;17.10;;;;;;;24.48;82.90;99184.45;105210;1270;62181;-77
2022/06/28 10:51:42;;;;;;;18.50;16.60;;;;;;;24.42;85.51;99187.21;105241;1271;76887;-77
2022/06/28 10:54:15;;;;;;;17.80;16.20;;;;;;;24.39;84.45;99190.10;105270;1271;68574;-77
2022/06/28 10:56:46;;;;;;;16.40;15.10;;;;;;;24.43;85.82;99187.73;105235;1271;74684;-75
2022/06/28 10:59:18;;;;;;;18.20;16.50;;;;;;;24.37;87.15;99197.95;105391;1271;62460;-76
2022/06/28 11:01:51;;;;;;;19.50;17.60;;;;;;;24.33;88.40;99197.82;105248;1271;62002;-76
2022/06/28 11:04:22;;;;;;;19.00;17.30;;;;;;;24.35;88.15;99201.42;105241;1271;75963;-78
2022/06/28 11:06:53;;;;;;;22.70;20.60;;;;;;;24.39;89.44;99197.48;105223;1271;70336;-76
2022/06/28 11:10:03;;;;;;;21.60;19.80;;;;;;;24.44;89.34;99184.37;105308;1271;72810;-76
2022/06/28 11:13:21;;;;;;;19.60;18.00;;;;;;;24.56;91.76;99176.55;105233;1271;62086;-75
2022/06/28 11:15:47;;;;;;;19.20;17.40;;;;;;;24.58;91.72;99162.20;105251;1271;62203;-77
2022/06/28 11:18:16;;;;;;;19.20;17.50;;;;;;;24.57;91.38;99152.04;105242;1271;75722;-77
2022/06/28 11:20:43;;;;;;;20.00;18.30;;;;;;;24.63;92.14;99159.13;105282;1271;70272;-77
2022/06/28 11:23:24;;;;;;;16.70;15.40;;;;;;;24.75;91.29;99177.17;105217;1271;74495;-77
2022/06/28 11:28:57;;;;;;;15.00;13.80;;;;;;;25.14;89.93;99188.98;105219;1271;62171;-78
2022/06/28 11:31:27;;;;;;;15.60;14.40;;;;;;;25.36;88.85;99186.66;105277;1271;77227;-77
2022/06/28 11:33:54;;;;;;;13.30;12.20;;;;;;;25.55;88.21;99198.71;105109;1271;69426;-77
2022/06/28 11:36:30;;;;;;;12.60;11.50;;;;;;;25.75;87.74;99203.52;105203;1271;72865;-78
2022/06/28 11:39:19;;;;;;;11.20;10.40;;;;;;;25.96;86.80;99197.06;105250;1271;62073;-78